Villa Angelica, Puerto Rico
Current Conditions -  °F | °C
As of 2:50 PM on Sunday 23 Nov 2014 (Local Time) from TJBQ Reporting Station
Scattered Clouds Scattered Clouds  
Wind Chill: 84°   Ceiling: Unl
Heat Index: 91°   Visibility: 10mi
Dew Point: 73°   Wind: 20mph
Humidity: 70%   Direction: 90°E
Pressure: 29.98"   Gusts: 29mph
Location:  18.2038°N, 67.1453°W
Report Text: TJBQ 231850Z 09017G25KT 10SM SCT024 29/23 A2998 RMK RWY 08 ATIS M
Loading
Personal Weather Stations






























Interactive Weather Map New forecast layout! Learn more

10-Day Weather Forecast

Advertisements
Track Severe Weather on mobile